Time;durP1;ratioP1;P1;durP2;ratioP2;P2;SDS_P1;SDS_P2;PMS_P1;PMS_P2;Temp;Humidity;BMP_temperature;BMP_pressure;BME280_temperature;BME280_humidity;BME280_pressure;Samples;Min_cycle;Max_cycle;Signal;HPM_P1;HPM_P2
2023/08/02 00:01:07;;;;;;;10.23;3.75;;;;;;;;;;5007629;28;20566;-69
2023/08/02 00:03:33;;;;;;;10.57;4.38;;;;;;;;;;5008646;28;20584;-67
2023/08/02 00:05:58;;;;;;;9.45;4.20;;;;;;;;;;5007214;28;20203;-69
2023/08/02 00:08:24;;;;;;;8.77;4.03;;;;;;;;;;5007427;28;20199;-68
2023/08/02 00:10:50;;;;;;;10.98;3.92;;;;;;;;;;5009360;28;20202;-69
2023/08/02 00:13:15;;;;;;;9.48;3.90;;;;;;;;;;5005674;28;20186;-68
2023/08/02 00:15:40;;;;;;;7.90;3.35;;;;;;;;;;5006494;28;20209;-68
2023/08/02 00:18:06;;;;;;;12.88;3.75;;;;;;;;;;5004407;23;20242;-67
2023/08/02 00:20:31;;;;;;;9.23;3.38;;;;;;;;;;4986355;28;20215;-66
2023/08/02 00:22:56;;;;;;;7.80;3.50;;;;;;;;;;4986046;28;20246;-67
2023/08/02 00:25:22;;;;;;;8.38;3.65;;;;;;;;;;4988960;28;20203;-67
2023/08/02 00:27:47;;;;;;;7.88;3.72;;;;;;;;;;4999765;28;20213;-67
2023/08/02 00:30:12;;;;;;;11.65;3.38;;;;;;;;;;5007087;28;21091;-67
2023/08/02 00:32:44;;;;;;;14.52;4.30;;;;;;;;;;5003236;28;20218;-67
2023/08/02 00:35:09;;;;;;;6.78;4.55;;;;;;;;;;5008021;28;20205;-67
2023/08/02 00:37:37;;;;;;;14.50;4.05;;;;;;;;;;5021433;28;20222;-66
2023/08/02 00:40:03;;;;;;;13.55;4.15;;;;;;;;;;5005825;28;20273;-67
2023/08/02 00:42:29;;;;;;;9.13;3.60;;;;;;;;;;5022951;28;20194;-67
2023/08/02 00:44:54;;;;;;;7.80;3.97;;;;;;;;;;5007438;28;20642;-67
2023/08/02 00:47:19;;;;;;;9.80;3.35;;;;;;;;;;5005810;28;20763;-67
2023/08/02 00:49:45;;;;;;;5.43;3.70;;;;;;;;;;5006774;28;20187;-68
2023/08/02 00:52:10;;;;;;;10.40;3.85;;;;;;;;;;5006174;28;20182;-68
2023/08/02 00:54:35;;;;;;;9.07;3.85;;;;;;;;;;5005615;28;20676;-67
2023/08/02 00:57:01;;;;;;;10.15;4.55;;;;;;;;;;5006188;28;20237;-66
2023/08/02 00:59:26;;;;;;;8.43;3.92;;;;;;;;;;5006511;28;20225;-67
2023/08/02 01:01:52;;;;;;;5.28;3.80;;;;;;;;;;5006854;28;20186;-66
2023/08/02 01:04:17;;;;;;;13.27;4.82;;;;;;;;;;5006390;28;20568;-67
2023/08/02 01:06:45;;;;;;;9.68;4.53;;;;;;;;;;5001958;28;20239;-67
2023/08/02 01:09:10;;;;;;;10.50;4.05;;;;;;;;;;5004613;28;20800;-67
2023/08/02 01:11:38;;;;;;;8.43;4.13;;;;;;;;;;5008203;28;21091;-67
2023/08/02 01:14:04;;;;;;;10.02;5.15;;;;;;;;;;5003414;28;20747;-67
2023/08/02 01:16:31;;;;;;;8.18;4.35;;;;;;;;;;5006287;28;20292;-67
2023/08/02 01:18:58;;;;;;;11.65;4.47;;;;;;;;;;5003482;28;20267;-66
2023/08/02 01:21:23;;;;;;;9.88;5.03;;;;;;;;;;5006183;28;20198;-67
2023/08/02 01:23:49;;;;;;;8.95;5.03;;;;;;;;;;5005953;28;20183;-67
2023/08/02 01:26:14;;;;;;;12.98;4.55;;;;;;;;;;5007538;28;20179;-67
2023/08/02 01:28:42;;;;;;;10.38;5.35;;;;;;;;;;5002086;28;20975;-67
2023/08/02 01:31:09;;;;;;;13.02;5.78;;;;;;;;;;5007333;28;20322;-67
2023/08/02 01:33:36;;;;;;;9.48;4.85;;;;;;;;;;5006831;28;20692;-67
2023/08/02 01:36:02;;;;;;;11.05;5.00;;;;;;;;;;5006725;28;20183;-67
2023/08/02 01:38:27;;;;;;;9.82;5.45;;;;;;;;;;5006648;28;20214;-68
2023/08/02 01:40:52;;;;;;;14.27;6.28;;;;;;;;;;5005685;28;20217;-67
2023/08/02 01:43:17;;;;;;;7.45;4.32;;;;;;;;;;5005641;28;21048;-67
2023/08/02 01:45:43;;;;;;;11.48;5.45;;;;;;;;;;5005548;28;20186;-68
2023/08/02 01:48:08;;;;;;;15.50;4.75;;;;;;;;;;5006807;28;20202;-67
2023/08/02 01:50:34;;;;;;;7.75;4.60;;;;;;;;;;5005702;28;20857;-67
2023/08/02 01:52:59;;;;;;;9.50;4.93;;;;;;;;;;5005740;28;20668;-67
2023/08/02 01:55:24;;;;;;;8.20;5.40;;;;;;;;;;5004669;28;20248;-67
2023/08/02 01:57:49;;;;;;;11.25;5.43;;;;;;;;;;5005129;28;20276;-67
2023/08/02 02:00:14;;;;;;;8.90;4.60;;;;;;;;;;5006071;28;20221;-68
2023/08/02 02:02:40;;;;;;;8.38;4.88;;;;;;;;;;5006699;28;20191;-68
2023/08/02 02:05:05;;;;;;;10.48;5.10;;;;;;;;;;5007166;28;20225;-67
2023/08/02 02:07:30;;;;;;;11.52;5.20;;;;;;;;;;5006217;28;20210;-68
2023/08/02 02:09:56;;;;;;;11.18;4.95;;;;;;;;;;5008503;28;20260;-68
2023/08/02 02:12:21;;;;;;;8.05;4.28;;;;;;;;;;5009884;28;20186;-68
2023/08/02 02:14:46;;;;;;;8.73;4.18;;;;;;;;;;5009393;28;20196;-68
2023/08/02 02:17:11;;;;;;;12.63;4.65;;;;;;;;;;5012400;28;20228;-68
2023/08/02 02:19:37;;;;;;;13.35;4.28;;;;;;;;;;5009114;28;20812;-68
2023/08/02 02:22:03;;;;;;;10.55;4.57;;;;;;;;;;5008749;28;20179;-67
2023/08/02 02:24:28;;;;;;;11.68;5.32;;;;;;;;;;5007353;28;20244;-67
2023/08/02 02:26:53;;;;;;;8.73;4.15;;;;;;;;;;5010262;28;20199;-66
2023/08/02 02:29:18;;;;;;;7.10;4.45;;;;;;;;;;5005562;28;20206;-66
2023/08/02 02:31:43;;;;;;;8.18;4.15;;;;;;;;;;5008835;28;20276;-66
2023/08/02 02:34:09;;;;;;;13.50;4.68;;;;;;;;;;5009477;28;20222;-66
2023/08/02 02:36:34;;;;;;;10.00;4.15;;;;;;;;;;5009527;28;20680;-67
2023/08/02 02:38:59;;;;;;;8.02;3.97;;;;;;;;;;5009524;28;20212;-66
2023/08/02 02:41:24;;;;;;;16.23;5.05;;;;;;;;;;5009843;28;20519;-67
2023/08/02 02:43:50;;;;;;;10.35;4.35;;;;;;;;;;5009097;28;20531;-67
2023/08/02 02:46:15;;;;;;;8.68;4.40;;;;;;;;;;5008833;28;20570;-67
2023/08/02 02:48:40;;;;;;;10.35;4.03;;;;;;;;;;5009972;28;20183;-67
2023/08/02 02:51:05;;;;;;;15.48;5.57;;;;;;;;;;5002840;28;20186;-66
2023/08/02 02:53:30;;;;;;;9.15;4.30;;;;;;;;;;5009694;28;20182;-66
2023/08/02 02:55:56;;;;;;;7.32;4.00;;;;;;;;;;5007799;28;20271;-66
2023/08/02 02:58:21;;;;;;;13.13;4.90;;;;;;;;;;5008498;28;20214;-67
2023/08/02 03:00:46;;;;;;;10.40;3.95;;;;;;;;;;5005849;28;20696;-67
2023/08/02 03:03:12;;;;;;;11.35;4.70;;;;;;;;;;5009412;28;20277;-67
2023/08/02 03:05:37;;;;;;;9.25;3.55;;;;;;;;;;5007763;28;20186;-67
2023/08/02 03:08:03;;;;;;;8.73;3.75;;;;;;;;;;5005237;28;20628;-68
2023/08/02 03:10:28;;;;;;;13.95;4.43;;;;;;;;;;5005878;28;20195;-66
2023/08/02 03:12:53;;;;;;;7.85;3.10;;;;;;;;;;5009817;28;20186;-67
2023/08/02 03:15:18;;;;;;;8.98;3.72;;;;;;;;;;5007446;28;20198;-67
2023/08/02 03:17:44;;;;;;;7.78;3.88;;;;;;;;;;5008346;28;20276;-67
2023/08/02 03:20:09;;;;;;;8.30;3.55;;;;;;;;;;5008398;28;20206;-67
2023/08/02 03:22:34;;;;;;;6.63;3.63;;;;;;;;;;5007773;28;20182;-67
2023/08/02 03:25:00;;;;;;;9.43;3.88;;;;;;;;;;5005891;28;20186;-67
2023/08/02 03:27:25;;;;;;;10.40;4.07;;;;;;;;;;5007927;28;20236;-68
2023/08/02 03:29:50;;;;;;;6.15;3.35;;;;;;;;;;5008663;28;20222;-68
2023/08/02 03:32:15;;;;;;;10.68;4.35;;;;;;;;;;5010369;28;20182;-70
2023/08/02 03:34:41;;;;;;;9.05;4.25;;;;;;;;;;5006334;28;21453;-68
2023/08/02 03:37:06;;;;;;;11.88;4.13;;;;;;;;;;5007111;28;20229;-67
2023/08/02 03:39:31;;;;;;;8.52;3.80;;;;;;;;;;5008661;28;20202;-67
2023/08/02 03:41:56;;;;;;;10.80;4.07;;;;;;;;;;5008944;28;20233;-66
2023/08/02 03:44:21;;;;;;;5.57;3.67;;;;;;;;;;5008421;28;20178;-67
2023/08/02 03:46:47;;;;;;;15.02;4.65;;;;;;;;;;5007037;28;20210;-67
2023/08/02 03:49:12;;;;;;;10.95;3.92;;;;;;;;;;5008224;28;20191;-67
2023/08/02 03:51:37;;;;;;;9.20;3.10;;;;;;;;;;5007684;28;20194;-67
2023/08/02 03:54:03;;;;;;;9.15;3.58;;;;;;;;;;5008293;28;20672;-67
2023/08/02 03:56:29;;;;;;;12.18;4.10;;;;;;;;;;5006878;28;20700;-67
2023/08/02 03:58:54;;;;;;;6.63;3.60;;;;;;;;;;5007271;28;20198;-68
2023/08/02 04:01:19;;;;;;;8.05;4.13;;;;;;;;;;5008404;28;20997;-67
2023/08/02 04:03:44;;;;;;;12.80;4.15;;;;;;;;;;5007729;28;20190;-67
2023/08/02 04:06:10;;;;;;;9.32;4.50;;;;;;;;;;5009151;28;20746;-68
2023/08/02 04:08:35;;;;;;;10.40;4.32;;;;;;;;;;5004784;28;20190;-67
2023/08/02 04:11:04;;;;;;;7.28;3.80;;;;;;;;;;5006518;28;20261;-67
2023/08/02 04:13:29;;;;;;;9.73;3.88;;;;;;;;;;5006726;28;20190;-67
2023/08/02 04:15:54;;;;;;;8.85;3.70;;;;;;;;;;5006793;28;20197;-67
2023/08/02 04:18:19;;;;;;;7.32;3.20;;;;;;;;;;5007244;28;20226;-67
2023/08/02 04:20:45;;;;;;;7.45;3.30;;;;;;;;;;5004514;28;20210;-67
2023/08/02 04:23:10;;;;;;;7.25;3.05;;;;;;;;;;5008391;28;20179;-68
2023/08/02 04:25:35;;;;;;;8.63;3.15;;;;;;;;;;5008467;28;20191;-67
2023/08/02 04:28:00;;;;;;;6.32;3.33;;;;;;;;;;5005868;28;20194;-67
2023/08/02 04:30:25;;;;;;;6.55;3.05;;;;;;;;;;5008641;28;20576;-66
2023/08/02 04:32:51;;;;;;;5.50;2.67;;;;;;;;;;5007913;28;20186;-67
2023/08/02 04:35:16;;;;;;;11.15;3.33;;;;;;;;;;5007169;28;20190;-67
2023/08/02 04:37:41;;;;;;;5.20;2.95;;;;;;;;;;5002436;28;20217;-67
2023/08/02 04:40:07;;;;;;;6.50;2.90;;;;;;;;;;5007858;28;20996;-67
2023/08/02 04:42:32;;;;;;;16.33;4.55;;;;;;;;;;5006990;28;20197;-66
2023/08/02 04:44:57;;;;;;;5.45;3.10;;;;;;;;;;5004851;28;20190;-67
2023/08/02 04:47:23;;;;;;;4.72;3.05;;;;;;;;;;5007010;28;20206;-67
2023/08/02 04:49:48;;;;;;;8.45;3.13;;;;;;;;;;5007952;28;20956;-67
2023/08/02 04:52:13;;;;;;;7.72;3.28;;;;;;;;;;5006550;28;20223;-67
2023/08/02 04:54:38;;;;;;;6.32;3.17;;;;;;;;;;5007195;28;20191;-67
2023/08/02 04:57:03;;;;;;;5.32;2.92;;;;;;;;;;5003919;28;20206;-67
2023/08/02 04:59:29;;;;;;;7.13;3.45;;;;;;;;;;5005829;28;20353;-67
2023/08/02 05:01:54;;;;;;;7.65;3.38;;;;;;;;;;5007836;28;20210;-67
2023/08/02 05:04:19;;;;;;;8.00;3.53;;;;;;;;;;5007718;28;21447;-67
2023/08/02 05:06:44;;;;;;;6.15;3.88;;;;;;;;;;5005622;28;20629;-66
2023/08/02 05:09:10;;;;;;;5.78;3.10;;;;;;;;;;5005510;28;20668;-67
2023/08/02 05:11:37;;;;;;;10.63;4.03;;;;;;;;;;5007012;28;20179;-67
2023/08/02 05:14:03;;;;;;;7.03;3.00;;;;;;;;;;4994686;28;20191;-67
2023/08/02 05:16:28;;;;;;;5.45;3.20;;;;;;;;;;4999677;28;20237;-67
2023/08/02 05:18:53;;;;;;;6.57;3.97;;;;;;;;;;5004708;28;20679;-67
2023/08/02 05:21:19;;;;;;;7.38;3.78;;;;;;;;;;5001659;28;20239;-67
2023/08/02 05:23:44;;;;;;;6.03;3.80;;;;;;;;;;5005994;28;20613;-67
2023/08/02 05:26:09;;;;;;;11.48;4.13;;;;;;;;;;4998317;28;20271;-66
2023/08/02 05:28:35;;;;;;;8.65;3.97;;;;;;;;;;4998332;28;20349;-67
2023/08/02 05:31:00;;;;;;;6.35;3.47;;;;;;;;;;4995850;28;20186;-67
2023/08/02 05:33:26;;;;;;;7.90;4.07;;;;;;;;;;5006862;28;20198;-67
2023/08/02 05:35:51;;;;;;;5.38;3.00;;;;;;;;;;5007137;28;20588;-68
2023/08/02 05:38:17;;;;;;;10.18;3.97;;;;;;;;;;5007591;28;20233;-67
2023/08/02 05:40:42;;;;;;;8.00;3.78;;;;;;;;;;5008921;28;20261;-68
2023/08/02 05:43:07;;;;;;;6.85;4.07;;;;;;;;;;5010297;28;20190;-68
2023/08/02 05:45:33;;;;;;;8.93;3.63;;;;;;;;;;5010464;28;20182;-69
2023/08/02 05:47:58;;;;;;;5.63;3.15;;;;;;;;;;5009138;28;20813;-69
2023/08/02 05:50:24;;;;;;;5.95;3.72;;;;;;;;;;5010077;28;20182;-70
2023/08/02 05:52:49;;;;;;;7.13;3.53;;;;;;;;;;5010764;28;20777;-70
2023/08/02 05:55:14;;;;;;;10.07;3.97;;;;;;;;;;5012345;28;20182;-70
2023/08/02 05:57:39;;;;;;;6.82;3.75;;;;;;;;;;5011868;28;20862;-69
2023/08/02 06:00:07;;;;;;;6.80;3.47;;;;;;;;;;5012016;28;20209;-70
2023/08/02 06:02:32;;;;;;;5.47;3.55;;;;;;;;;;5011979;28;20552;-69
2023/08/02 06:04:57;;;;;;;7.05;4.10;;;;;;;;;;5010439;28;20187;-70
2023/08/02 06:07:22;;;;;;;5.70;2.95;;;;;;;;;;5009590;28;20218;-69
2023/08/02 06:09:48;;;;;;;6.47;4.00;;;;;;;;;;5009008;28;20190;-68
2023/08/02 06:12:13;;;;;;;9.68;3.90;;;;;;;;;;5010218;28;20190;-70
2023/08/02 06:14:38;;;;;;;7.97;3.55;;;;;;;;;;5010653;28;20668;-69
2023/08/02 06:17:04;;;;;;;6.28;3.30;;;;;;;;;;5010210;28;20215;-69
2023/08/02 06:19:30;;;;;;;5.93;3.20;;;;;;;;;;5010224;28;20226;-68
2023/08/02 06:21:55;;;;;;;8.38;3.63;;;;;;;;;;5010934;28;20193;-68
2023/08/02 06:24:21;;;;;;;8.32;3.90;;;;;;;;;;5010096;28;20195;-69
2023/08/02 06:26:46;;;;;;;4.60;3.40;;;;;;;;;;5010640;28;20217;-68
2023/08/02 06:29:12;;;;;;;6.63;3.78;;;;;;;;;;5009322;28;20683;-68
2023/08/02 06:31:37;;;;;;;4.22;3.15;;;;;;;;;;5009138;28;20235;-68
2023/08/02 06:34:02;;;;;;;4.28;2.75;;;;;;;;;;5008868;28;20270;-68
2023/08/02 06:36:27;;;;;;;6.20;3.75;;;;;;;;;;5005629;28;20210;-68
2023/08/02 06:38:53;;;;;;;6.15;2.83;;;;;;;;;;4993197;28;20247;-68
2023/08/02 06:41:18;;;;;;;5.45;2.78;;;;;;;;;;4993257;28;20198;-68
2023/08/02 06:43:43;;;;;;;4.75;2.72;;;;;;;;;;4999205;28;20179;-68
2023/08/02 06:46:08;;;;;;;3.85;2.72;;;;;;;;;;4994519;28;20182;-67
2023/08/02 06:48:33;;;;;;;4.45;2.67;;;;;;;;;;4996817;28;20224;-68
2023/08/02 06:50:59;;;;;;;4.78;2.95;;;;;;;;;;4994267;28;20219;-67
2023/08/02 06:53:25;;;;;;;4.60;2.60;;;;;;;;;;4995407;28;20760;-68
2023/08/02 06:55:50;;;;;;;3.22;2.33;;;;;;;;;;4992379;28;20704;-67
2023/08/02 06:58:15;;;;;;;4.03;2.67;;;;;;;;;;4995634;28;20202;-68
2023/08/02 07:00:41;;;;;;;3.13;2.40;;;;;;;;;;5002379;28;20215;-69
2023/08/02 07:03:06;;;;;;;7.35;2.75;;;;;;;;;;4994805;28;20193;-67
2023/08/02 07:05:32;;;;;;;3.80;2.08;;;;;;;;;;4994186;28;20191;-68
2023/08/02 07:07:58;;;;;;;2.75;2.20;;;;;;;;;;4993568;28;20202;-68
2023/08/02 07:10:23;;;;;;;4.10;2.17;;;;;;;;;;4993322;28;20772;-68
2023/08/02 07:12:49;;;;;;;4.07;2.15;;;;;;;;;;4990473;28;20194;-68
2023/08/02 07:15:15;;;;;;;3.17;2.60;;;;;;;;;;4992415;28;20503;-69
2023/08/02 07:17:40;;;;;;;4.18;2.40;;;;;;;;;;4992980;28;20812;-68
2023/08/02 07:20:06;;;;;;;3.13;1.98;;;;;;;;;;4994291;28;21466;-68
2023/08/02 07:22:31;;;;;;;2.80;1.95;;;;;;;;;;4994365;28;20594;-69
2023/08/02 07:24:56;;;;;;;2.65;2.00;;;;;;;;;;4992602;28;20182;-68
2023/08/02 07:27:21;;;;;;;2.38;1.90;;;;;;;;;;4993663;28;20202;-68
2023/08/02 07:29:51;;;;;;;3.53;2.17;;;;;;;;;;4994123;28;20195;-69
2023/08/02 07:32:16;;;;;;;1.95;1.60;;;;;;;;;;4993261;28;20189;-68
2023/08/02 07:34:42;;;;;;;2.28;1.75;;;;;;;;;;4997289;28;20186;-67
2023/08/02 07:37:07;;;;;;;2.47;1.55;;;;;;;;;;4998118;28;20293;-69
2023/08/02 07:39:33;;;;;;;2.95;1.70;;;;;;;;;;4993763;28;20217;-68
2023/08/02 07:41:58;;;;;;;2.70;1.17;;;;;;;;;;4993342;28;21822;-68
2023/08/02 07:44:23;;;;;;;1.40;1.30;;;;;;;;;;4995732;28;21368;-69
2023/08/02 07:46:50;;;;;;;5.05;1.40;;;;;;;;;;4994629;28;20198;-68
2023/08/02 07:49:15;;;;;;;1.70;1.33;;;;;;;;;;4993648;28;20241;-68
2023/08/02 07:51:40;;;;;;;2.17;1.27;;;;;;;;;;4993374;28;20796;-67
2023/08/02 07:54:06;;;;;;;1.88;1.33;;;;;;;;;;4993854;28;20225;-67
2023/08/02 07:56:31;;;;;;;1.48;1.13;;;;;;;;;;4993375;28;20312;-67
2023/08/02 07:58:56;;;;;;;1.33;0.85;;;;;;;;;;4992794;28;20213;-68
2023/08/02 08:01:21;;;;;;;1.77;1.10;;;;;;;;;;4999514;28;20179;-68
2023/08/02 08:03:47;;;;;;;2.00;1.17;;;;;;;;;;4994019;28;20182;-68
2023/08/02 08:06:13;;;;;;;3.03;0.98;;;;;;;;;;4995724;28;20576;-68
2023/08/02 08:08:38;;;;;;;3.20;0.80;;;;;;;;;;4995452;28;20182;-67
2023/08/02 08:11:04;;;;;;;1.48;1.10;;;;;;;;;;4993270;28;20186;-67
2023/08/02 08:13:29;;;;;;;1.02;0.77;;;;;;;;;;4993502;28;20187;-68
2023/08/02 08:15:54;;;;;;;1.20;0.98;;;;;;;;;;4993499;28;20762;-68
2023/08/02 08:18:19;;;;;;;1.63;0.90;;;;;;;;;;4993655;28;20227;-69
2023/08/02 08:20:45;;;;;;;1.17;1.00;;;;;;;;;;4992464;28;20206;-68
2023/08/02 08:23:10;;;;;;;2.75;1.20;;;;;;;;;;5025626;28;20170;-69
2023/08/02 08:25:36;;;;;;;1.20;1.00;;;;;;;;;;5009588;22;20239;-72
2023/08/02 08:28:01;;;;;;;1.00;0.90;;;;;;;;;;4986716;28;20298;-73
2023/08/02 08:30:26;;;;;;;1.85;0.77;;;;;;;;;;4974030;28;22070;-73
2023/08/02 08:32:51;;;;;;;0.77;0.70;;;;;;;;;;4971327;28;20302;-73
2023/08/02 08:35:17;;;;;;;0.95;0.80;;;;;;;;;;4971011;28;20207;-73
2023/08/02 08:37:42;;;;;;;1.38;1.08;;;;;;;;;;4971828;28;20691;-75
2023/08/02 08:40:12;;;;;;;1.08;0.85;;;;;;;;;;4972045;28;20221;-74
2023/08/02 08:42:46;;;;;;;2.00;1.33;;;;;;;;;;4969326;28;22382;-73
2023/08/02 08:45:11;;;;;;;1.50;1.13;;;;;;;;;;4977542;28;20651;-73
2023/08/02 08:47:37;;;;;;;2.40;1.20;;;;;;;;;;4972843;28;20193;-73
2023/08/02 08:50:04;;;;;;;1.35;1.20;;;;;;;;;;4972835;28;20812;-73
2023/08/02 08:52:31;;;;;;;1.30;1.20;;;;;;;;;;4969657;28;20187;-73
2023/08/02 08:54:57;;;;;;;1.20;1.08;;;;;;;;;;4969716;28;20271;-73
2023/08/02 08:57:22;;;;;;;1.48;0.93;;;;;;;;;;4972794;28;20183;-73
2023/08/02 08:59:47;;;;;;;1.55;1.10;;;;;;;;;;4970526;28;20217;-74
2023/08/02 09:02:13;;;;;;;1.35;1.00;;;;;;;;;;4973481;28;20199;-73
2023/08/02 09:04:38;;;;;;;2.05;0.90;;;;;;;;;;4970123;28;20339;-73
2023/08/02 09:07:03;;;;;;;1.75;1.10;;;;;;;;;;4970892;28;20187;-72
2023/08/02 09:09:29;;;;;;;1.10;1.00;;;;;;;;;;4968345;28;20401;-73
2023/08/02 09:11:55;;;;;;;1.10;1.00;;;;;;;;;;4971628;28;20270;-71
2023/08/02 09:14:20;;;;;;;1.00;0.82;;;;;;;;;;4975431;28;20195;-73
2023/08/02 09:16:56;;;;;;;1.25;1.15;;;;;;;;;;4982168;28;20679;-72
2023/08/02 09:19:32;;;;;;;1.17;1.02;;;;;;;;;;4970790;28;20207;-72
2023/08/02 09:22:11;;;;;;;1.73;0.70;;;;;;;;;;4969017;28;20182;-73
2023/08/02 09:24:37;;;;;;;1.15;1.05;;;;;;;;;;4968726;28;20697;-73
2023/08/02 09:27:06;;;;;;;1.85;1.00;;;;;;;;;;4969166;28;20190;-73
2023/08/02 09:29:51;;;;;;;1.20;1.10;;;;;;;;;;4968424;28;20191;-73
2023/08/02 09:32:17;;;;;;;2.78;0.90;;;;;;;;;;4970109;28;20187;-72
2023/08/02 09:34:43;;;;;;;2.35;1.70;;;;;;;;;;4969137;28;20239;-73
2023/08/02 09:37:11;;;;;;;1.10;0.88;;;;;;;;;;4972151;28;20186;-72
2023/08/02 09:39:36;;;;;;;1.48;1.38;;;;;;;;;;4970809;28;20206;-73
2023/08/02 09:42:08;;;;;;;1.15;1.05;;;;;;;;;;4970267;28;20229;-73
2023/08/02 09:44:33;;;;;;;1.27;1.17;;;;;;;;;;4980409;28;20341;-72
2023/08/02 09:47:09;;;;;;;1.38;1.23;;;;;;;;;;4970871;28;20877;-72
2023/08/02 09:49:35;;;;;;;1.98;1.40;;;;;;;;;;4969769;28;20198;-71
2023/08/02 09:52:00;;;;;;;1.70;1.60;;;;;;;;;;4968393;28;20927;-72
2023/08/02 09:54:25;;;;;;;2.33;1.50;;;;;;;;;;4971035;28;20215;-72
2023/08/02 09:56:51;;;;;;;1.30;1.20;;;;;;;;;;4969793;28;20199;-72
2023/08/02 09:59:17;;;;;;;1.88;1.27;;;;;;;;;;4968301;28;20246;-71
2023/08/02 10:01:44;;;;;;;1.50;1.40;;;;;;;;;;4969354;28;20215;-72
2023/08/02 10:04:12;;;;;;;1.02;0.82;;;;;;;;;;4968433;28;20191;-74
2023/08/02 10:06:42;;;;;;;1.80;1.40;;;;;;;;;;4973920;28;20187;-73
2023/08/02 10:09:08;;;;;;;1.38;1.20;;;;;;;;;;4983108;28;20191;-72
2023/08/02 10:11:45;;;;;;;1.73;1.20;;;;;;;;;;4985510;28;20182;-72
2023/08/02 10:14:11;;;;;;;2.25;1.50;;;;;;;;;;4986838;28;20262;-71
2023/08/02 10:16:37;;;;;;;3.55;1.17;;;;;;;;;;4986504;28;20183;-71
2023/08/02 10:19:03;;;;;;;1.05;1.02;;;;;;;;;;4985756;28;20618;-71
2023/08/02 10:21:30;;;;;;;2.05;0.93;;;;;;;;;;4986444;28;20244;-71
2023/08/02 10:23:57;;;;;;;4.47;1.25;;;;;;;;;;4986944;28;20582;-70
2023/08/02 10:26:22;;;;;;;1.13;1.05;;;;;;;;;;4988670;28;20231;-71
2023/08/02 10:28:48;;;;;;;1.13;0.60;;;;;;;;;;4989294;28;20653;-70
2023/08/02 10:31:13;;;;;;;3.50;0.80;;;;;;;;;;4990618;28;20188;-70
2023/08/02 10:33:39;;;;;;;5.15;0.68;;;;;;;;;;4988812;28;20195;-70
2023/08/02 10:36:05;;;;;;;1.88;0.90;;;;;;;;;;4989644;28;20314;-71
2023/08/02 10:38:40;;;;;;;1.27;0.77;;;;;;;;;;4989278;28;20182;-69
2023/08/02 10:41:06;;;;;;;3.05;0.68;;;;;;;;;;4986662;28;20722;-69
2023/08/02 10:43:31;;;;;;;2.15;0.75;;;;;;;;;;4973482;28;20191;-69
2023/08/02 10:46:16;;;;;;;3.75;1.05;;;;;;;;;;4973059;28;20297;-68
2023/08/02 10:48:41;;;;;;;3.63;0.82;;;;;;;;;;4970219;28;20187;-69
2023/08/02 10:51:26;;;;;;;1.45;0.55;;;;;;;;;;4970483;28;20186;-68
2023/08/02 10:54:11;;;;;;;2.60;0.98;;;;;;;;;;4971436;28;20279;-70
2023/08/02 10:57:09;;;;;;;4.32;1.00;;;;;;;;;;4970911;28;20960;-69
2023/08/02 10:59:34;;;;;;;4.15;1.27;;;;;;;;;;4938057;28;20219;-69
2023/08/02 11:01:59;;;;;;;4.55;1.27;;;;;;;;;;4975201;28;20816;-70
2023/08/02 11:04:25;;;;;;;6.18;1.02;;;;;;;;;;4972456;28;20187;-70
2023/08/02 11:06:50;;;;;;;4.70;1.00;;;;;;;;;;4972830;28;20278;-69
2023/08/02 11:09:16;;;;;;;4.43;1.25;;;;;;;;;;4971519;28;20279;-69
2023/08/02 11:11:41;;;;;;;2.45;0.88;;;;;;;;;;4972615;28;20190;-69
2023/08/02 11:14:06;;;;;;;4.07;0.90;;;;;;;;;;4972723;28;20282;-68
2023/08/02 11:16:38;;;;;;;5.65;1.05;;;;;;;;;;4973167;28;20270;-70
2023/08/02 11:19:07;;;;;;;7.03;1.10;;;;;;;;;;4973766;28;20187;-69
2023/08/02 11:21:33;;;;;;;3.47;1.40;;;;;;;;;;4973690;28;20206;-69
2023/08/02 11:23:59;;;;;;;5.55;1.40;;;;;;;;;;4972544;28;20195;-69
2023/08/02 11:26:24;;;;;;;7.00;2.75;;;;;;;;;;4971952;28;20621;-69
2023/08/02 11:28:52;;;;;;;4.57;1.50;;;;;;;;;;4974677;28;20218;-73
2023/08/02 11:31:17;;;;;;;7.13;1.45;;;;;;;;;;4972713;28;20194;-69
2023/08/02 11:33:43;;;;;;;3.83;1.52;;;;;;;;;;4971229;28;20191;-68
2023/08/02 11:36:08;;;;;;;4.57;1.30;;;;;;;;;;4969860;28;20307;-69
2023/08/02 11:38:35;;;;;;;4.95;1.35;;;;;;;;;;4972862;28;20183;-70
2023/08/02 11:41:00;;;;;;;2.95;1.20;;;;;;;;;;4985674;28;20215;-70
2023/08/02 11:43:35;;;;;;;6.55;1.17;;;;;;;;;;4980597;28;20226;-70
2023/08/02 11:46:11;;;;;;;3.15;1.40;;;;;;;;;;4972096;28;20213;-69
2023/08/02 11:48:36;;;;;;;5.30;1.30;;;;;;;;;;4972294;28;20345;-69
2023/08/02 11:51:01;;;;;;;6.78;1.13;;;;;;;;;;4970927;28;20638;-70
2023/08/02 11:53:27;;;;;;;4.70;1.08;;;;;;;;;;4970035;28;20191;-69
2023/08/02 11:55:52;;;;;;;4.20;0.82;;;;;;;;;;4970717;28;20211;-70
2023/08/02 11:58:17;;;;;;;1.25;0.40;;;;;;;;;;4971108;28;20221;-69
2023/08/02 12:00:44;;;;;;;3.08;0.80;;;;;;;;;;4973571;28;20199;-70
2023/08/02 12:03:10;;;;;;;3.92;1.15;;;;;;;;;;4970503;28;20674;-71
2023/08/02 12:05:35;;;;;;;8.82;2.13;;;;;;;;;;4971460;28;20724;-69
2023/08/02 12:08:27;;;;;;;2.70;0.52;;;;;;;;;;4970487;28;20207;-68
2023/08/02 12:10:52;;;;;;;1.63;0.60;;;;;;;;;;4967479;28;20203;-70
2023/08/02 12:13:17;;;;;;;1.85;0.60;;;;;;;;;;4972599;28;20380;-69
2023/08/02 12:15:58;;;;;;;4.32;0.70;;;;;;;;;;4969928;28;20203;-70
2023/08/02 12:18:23;;;;;;;3.85;0.73;;;;;;;;;;4970900;28;20297;-70
2023/08/02 12:20:49;;;;;;;3.60;0.93;;;;;;;;;;4968893;28;20271;-70
2023/08/02 12:23:33;;;;;;;3.78;0.85;;;;;;;;;;4970097;28;20182;-69
2023/08/02 12:25:59;;;;;;;3.35;1.40;;;;;;;;;;4970587;28;20593;-70
2023/08/02 12:28:24;;;;;;;3.92;0.63;;;;;;;;;;4970605;28;20238;-70
2023/08/02 12:31:05;;;;;;;3.38;0.85;;;;;;;;;;4970814;28;20381;-69
2023/08/02 12:33:31;;;;;;;3.08;0.90;;;;;;;;;;4970779;28;20198;-71
2023/08/02 12:35:56;;;;;;;2.58;0.57;;;;;;;;;;4970221;28;21046;-69
2023/08/02 12:38:23;;;;;;;1.17;0.60;;;;;;;;;;4972423;28;20693;-70
2023/08/02 12:40:48;;;;;;;0.98;0.40;;;;;;;;;;4967677;28;20221;-70
2023/08/02 12:43:15;;;;;;;4.85;0.60;;;;;;;;;;4975138;28;20180;-69
2023/08/02 12:45:40;;;;;;;2.47;0.70;;;;;;;;;;4970496;28;20210;-71
2023/08/02 12:48:05;;;;;;;7.03;0.90;;;;;;;;;;4968400;28;20732;-69
2023/08/02 12:50:30;;;;;;;4.68;0.60;;;;;;;;;;4970312;28;20269;-70
2023/08/02 12:52:56;;;;;;;4.20;0.57;;;;;;;;;;4975872;28;20192;-71
2023/08/02 12:55:21;;;;;;;2.45;1.25;;;;;;;;;;4976904;28;20202;-70
2023/08/02 12:57:46;;;;;;;5.93;1.15;;;;;;;;;;4977770;28;21268;-70
2023/08/02 13:00:12;;;;;;;6.97;1.10;;;;;;;;;;4976209;28;20211;-71
2023/08/02 13:02:38;;;;;;;1.23;0.40;;;;;;;;;;4980495;28;20723;-69
2023/08/02 13:05:03;;;;;;;4.55;0.82;;;;;;;;;;4992623;28;20207;-72
2023/08/02 13:07:28;;;;;;;13.18;2.05;;;;;;;;;;4986417;28;21455;-71
2023/08/02 13:09:54;;;;;;;3.13;0.50;;;;;;;;;;4990771;28;20187;-71
2023/08/02 13:12:19;;;;;;;2.08;0.80;;;;;;;;;;4992182;28;20183;-71
2023/08/02 13:14:44;;;;;;;0.88;0.40;;;;;;;;;;4991738;28;20345;-71
2023/08/02 13:17:13;;;;;;;0.70;0.28;;;;;;;;;;4990035;28;20668;-70
2023/08/02 13:19:38;;;;;;;2.30;0.55;;;;;;;;;;4991751;28;20207;-69
2023/08/02 13:22:03;;;;;;;1.58;0.40;;;;;;;;;;4990834;28;20180;-69
2023/08/02 13:24:29;;;;;;;2.13;0.57;;;;;;;;;;4977129;28;20212;-70
2023/08/02 13:26:54;;;;;;;7.45;0.63;;;;;;;;;;4973186;28;20188;-69
2023/08/02 13:29:19;;;;;;;3.58;0.55;;;;;;;;;;4972483;28;20184;-70
2023/08/02 13:31:44;;;;;;;1.50;0.50;;;;;;;;;;4970774;28;20725;-71
2023/08/02 13:34:09;;;;;;;1.35;0.50;;;;;;;;;;4969391;28;22169;-70
2023/08/02 13:36:35;;;;;;;6.07;0.93;;;;;;;;;;4972134;28;20187;-70
2023/08/02 13:39:00;;;;;;;3.28;0.55;;;;;;;;;;4969949;28;21208;-70
2023/08/02 13:41:25;;;;;;;6.03;0.57;;;;;;;;;;4969575;28;20219;-71
2023/08/02 13:43:50;;;;;;;9.10;1.08;;;;;;;;;;4968178;28;20275;-70
2023/08/02 13:46:16;;;;;;;1.95;0.40;;;;;;;;;;4973551;28;20727;-70
2023/08/02 13:48:41;;;;;;;3.88;1.13;;;;;;;;;;4972518;28;20203;-71
2023/08/02 13:51:06;;;;;;;6.20;1.23;;;;;;;;;;4971686;28;20406;-70
2023/08/02 13:53:31;;;;;;;8.38;1.10;;;;;;;;;;4971896;28;20191;-69
2023/08/02 13:55:57;;;;;;;6.53;1.67;;;;;;;;;;4969259;28;20215;-68
2023/08/02 13:58:24;;;;;;;7.10;1.13;;;;;;;;;;4969720;28;20740;-69
2023/08/02 14:00:49;;;;;;;6.60;1.48;;;;;;;;;;4979456;28;20213;-70
2023/08/02 14:03:15;;;;;;;4.80;0.90;;;;;;;;;;4977894;28;20658;-70
2023/08/02 14:05:40;;;;;;;5.85;1.52;;;;;;;;;;4976488;28;20207;-69
2023/08/02 14:08:06;;;;;;;4.60;1.10;;;;;;;;;;4975143;28;20251;-70
2023/08/02 14:10:31;;;;;;;6.57;1.58;;;;;;;;;;4976642;28;20214;-69
2023/08/02 14:12:58;;;;;;;4.70;1.40;;;;;;;;;;4974602;28;20195;-71
2023/08/02 14:15:23;;;;;;;10.15;1.67;;;;;;;;;;4976929;28;20214;-68
2023/08/02 14:17:48;;;;;;;6.13;1.35;;;;;;;;;;4977181;28;20223;-70
2023/08/02 14:20:14;;;;;;;6.88;1.70;;;;;;;;;;4983458;28;20206;-70
2023/08/02 14:22:39;;;;;;;6.40;1.48;;;;;;;;;;4983518;28;20187;-69
2023/08/02 14:25:04;;;;;;;8.55;1.13;;;;;;;;;;4986556;23;21056;-66
2023/08/02 14:27:30;;;;;;;7.28;1.60;;;;;;;;;;4976716;28;20233;-68
2023/08/02 14:29:55;;;;;;;8.18;1.00;;;;;;;;;;4974131;28;20556;-67
2023/08/02 14:32:20;;;;;;;5.30;1.42;;;;;;;;;;4973849;28;20183;-67
2023/08/02 14:34:45;;;;;;;7.20;1.35;;;;;;;;;;4955899;28;20183;-67